Time;durP1;ratioP1;P1;durP2;ratioP2;P2;SDS_P1;SDS_P2;PMS_P1;PMS_P2;Temp;Humidity;BMP_temperature;BMP_pressure;BME280_temperature;BME280_humidity;BME280_pressure;Samples;Min_cycle;Max_cycle;Signal;HPM_P1;HPM_P2
2022/03/11 00:00:26;;;;;;;7.10;3.20;;;;;;;-3.31;52.99;99490.19;4409716;32;20094;-76
2022/03/11 00:02:53;;;;;;;12.05;4.43;;;;;;;-2.93;52.03;99483.09;4409703;32;20096;-76
2022/03/11 00:05:20;;;;;;;7.37;2.53;;;;;;;-2.97;51.98;99488.84;4409846;32;20117;-76
2022/03/11 00:07:47;;;;;;;7.45;2.47;;;;;;;-3.00;52.63;99482.00;4409609;32;20475;-76
2022/03/11 00:10:14;;;;;;;10.55;3.62;;;;;;;-2.76;51.91;99489.56;4409536;32;20157;-76
2022/03/11 00:12:41;;;;;;;10.60;3.80;;;;;;;-3.24;53.00;99487.09;4409805;32;20074;-76
2022/03/11 00:15:09;;;;;;;6.07;2.35;;;;;;;-2.84;51.47;99478.34;4409136;32;20094;-76
2022/03/11 00:17:36;;;;;;;12.77;4.07;;;;;;;-2.83;51.33;99484.25;4409770;32;20102;-76
2022/03/11 00:20:05;;;;;;;10.02;3.95;;;;;;;-2.97;51.89;99487.19;4409448;32;20433;-76
2022/03/11 00:22:33;;;;;;;14.55;4.82;;;;;;;-3.07;52.42;99480.09;4409423;32;20146;-76
2022/03/11 00:25:00;;;;;;;10.80;3.90;;;;;;;-3.07;52.07;99481.78;4396059;32;20116;-76
2022/03/11 00:27:27;;;;;;;14.43;5.15;;;;;;;-2.86;50.88;99479.97;4409657;32;20244;-76
2022/03/11 00:29:54;;;;;;;11.93;4.55;;;;;;;-3.21;52.04;99474.56;4409123;32;20161;-76
2022/03/11 00:32:21;;;;;;;6.55;2.70;;;;;;;-3.17;52.12;99479.72;4409591;32;20157;-76
2022/03/11 00:34:48;;;;;;;8.95;3.08;;;;;;;-2.94;51.39;99481.38;4409574;32;20107;-76
2022/03/11 00:37:15;;;;;;;12.82;4.30;;;;;;;-3.21;52.01;99491.37;4409250;32;20125;-76
2022/03/11 00:39:42;;;;;;;12.60;4.20;;;;;;;-2.93;50.67;99488.13;4409132;32;20129;-76
2022/03/11 00:42:09;;;;;;;10.27;4.30;;;;;;;-3.40;52.02;99483.94;4408793;32;20128;-76
2022/03/11 00:44:36;;;;;;;20.33;5.00;;;;;;;-3.61;53.06;99477.38;4409078;32;20141;-76
2022/03/11 00:47:03;;;;;;;15.00;4.60;;;;;;;-3.33;52.06;99478.31;4409412;32;20485;-76
2022/03/11 00:49:30;;;;;;;8.88;2.83;;;;;;;-3.48;52.80;99483.69;4409264;32;20429;-76
2022/03/11 00:51:57;;;;;;;13.70;5.50;;;;;;;-3.46;52.61;99483.75;4408864;32;20106;-76
2022/03/11 00:54:25;;;;;;;10.35;3.65;;;;;;;-3.37;52.27;99481.56;4409264;32;20090;-76
2022/03/11 00:56:52;;;;;;;12.63;4.87;;;;;;;-3.25;51.99;99480.31;4409337;32;20128;-76
2022/03/11 00:59:20;;;;;;;13.60;4.68;;;;;;;-3.60;52.92;99486.66;4409139;32;20091;-76
2022/03/11 01:01:47;;;;;;;9.07;3.55;;;;;;;-3.39;52.08;99483.19;4408988;32;20199;-76
2022/03/11 01:04:14;;;;;;;9.82;3.20;;;;;;;-3.13;51.55;99482.41;4395180;32;20106;-76
2022/03/11 01:06:41;;;;;;;9.40;3.62;;;;;;;-3.27;52.09;99481.94;4409192;32;20146;-76
2022/03/11 01:09:08;;;;;;;12.98;4.78;;;;;;;-3.51;52.36;99481.94;4409043;32;20176;-76
2022/03/11 01:11:36;;;;;;;9.55;3.78;;;;;;;-3.65;53.14;99474.66;4408507;32;20077;-76
2022/03/11 01:14:04;;;;;;;10.85;4.30;;;;;;;-3.67;53.32;99476.25;4408930;32;20122;-76
2022/03/11 01:16:31;;;;;;;12.48;4.82;;;;;;;-3.59;53.03;99469.84;4409099;32;20166;-76
2022/03/11 01:18:58;;;;;;;16.52;5.50;;;;;;;-3.87;54.26;99470.50;4408589;32;20481;-76
2022/03/11 01:21:25;;;;;;;12.13;3.95;;;;;;;-3.88;54.08;99468.78;4408767;32;20169;-76
2022/03/11 01:23:55;;;;;;;13.70;5.05;;;;;;;-3.65;54.02;99474.66;4408873;32;20113;-76
2022/03/11 01:26:22;;;;;;;11.07;3.80;;;;;;;-3.93;54.94;99475.31;4408561;32;20110;-76
2022/03/11 01:28:49;;;;;;;12.98;5.10;;;;;;;-3.84;54.72;99473.97;4408757;32;20082;-76
2022/03/11 01:31:17;;;;;;;14.48;6.07;;;;;;;-3.86;54.44;99475.59;4408673;32;20464;-76
2022/03/11 01:33:45;;;;;;;14.18;5.37;;;;;;;-3.67;53.81;99477.13;4408483;32;20101;-76
2022/03/11 01:36:13;;;;;;;13.60;4.72;;;;;;;-3.64;53.89;99471.31;4407779;32;20225;-76
2022/03/11 01:38:41;;;;;;;16.08;6.03;;;;;;;-3.57;53.63;99471.59;4408624;32;20153;-76
2022/03/11 01:41:09;;;;;;;16.33;5.68;;;;;;;-3.91;54.37;99467.00;4408316;32;20453;-76
2022/03/11 01:43:59;;;;;;;14.87;5.53;;;;;;;-3.90;54.84;99467.87;4408611;32;20473;-77
2022/03/11 01:46:28;;;;;;;14.32;5.32;;;;;;;-3.80;54.13;99464.88;4407202;32;20132;-76
2022/03/11 01:48:57;;;;;;;14.82;5.47;;;;;;;-3.88;54.12;99464.59;4408580;32;20143;-76
2022/03/11 01:51:27;;;;;;;17.50;6.50;;;;;;;-3.83;54.47;99470.69;4408364;32;20158;-76
2022/03/11 01:53:55;;;;;;;14.65;5.65;;;;;;;-3.94;54.30;99461.81;4407974;32;20165;-76
2022/03/11 01:56:23;;;;;;;15.73;6.30;;;;;;;-3.47;53.17;99464.38;4410759;32;20512;-76
2022/03/11 01:58:53;;;;;;;16.27;6.37;;;;;;;-3.68;53.85;99465.31;4410738;32;20086;-76
2022/03/11 02:01:21;;;;;;;14.60;5.60;;;;;;;-3.74;53.89;99465.09;4410283;32;20149;-76
2022/03/11 02:03:49;;;;;;;16.35;5.97;;;;;;;-3.70;53.85;99468.59;4410835;32;20105;-76
2022/03/11 02:06:17;;;;;;;13.13;5.37;;;;;;;-4.15;54.86;99464.44;4409589;32;20142;-76
2022/03/11 02:08:44;;;;;;;15.85;5.72;;;;;;;-4.08;54.95;99470.53;4410226;32;20129;-76
2022/03/11 02:11:11;;;;;;;15.15;5.87;;;;;;;-3.68;53.71;99467.84;4396948;32;20152;-76
2022/03/11 02:13:45;;;;;;;13.43;5.60;;;;;;;-4.07;54.74;99468.06;4410169;32;20165;-76
2022/03/11 02:16:16;;;;;;;15.57;5.57;;;;;;;-3.67;53.76;99476.25;4410451;32;20110;-77
2022/03/11 02:18:44;;;;;;;15.15;5.03;;;;;;;-3.94;53.97;99471.91;4410627;32;20515;-76
2022/03/11 02:21:12;;;;;;;16.58;5.55;;;;;;;-4.15;54.46;99466.06;4410145;32;20173;-76
2022/03/11 02:23:45;;;;;;;16.60;5.47;;;;;;;-4.64;56.57;99473.38;4410644;32;20098;-76
2022/03/11 02:26:13;;;;;;;16.50;6.35;;;;;;;-3.94;54.62;99466.87;4410644;32;20138;-76
2022/03/11 02:28:40;;;;;;;13.93;5.25;;;;;;;-3.93;54.26;99466.09;4410202;32;20164;-76
2022/03/11 02:31:07;;;;;;;13.50;5.47;;;;;;;-3.85;53.56;99468.88;4410491;32;20153;-76
2022/03/11 02:33:35;;;;;;;17.17;5.47;;;;;;;-4.14;54.46;99472.84;4410499;32;20161;-76
2022/03/11 02:36:02;;;;;;;16.55;6.53;;;;;;;-4.05;54.07;99473.16;4410222;32;20130;-76
2022/03/11 02:38:29;;;;;;;17.15;6.20;;;;;;;-4.15;54.72;99459.37;4410533;32;20157;-76
2022/03/11 02:40:56;;;;;;;16.67;5.75;;;;;;;-3.90;53.80;99458.63;4410166;32;20167;-76
2022/03/11 02:43:24;;;;;;;16.42;6.00;;;;;;;-4.28;54.70;99467.25;4410149;32;20147;-76
2022/03/11 02:45:51;;;;;;;18.40;6.80;;;;;;;-4.27;55.24;99478.19;4410523;32;20108;-76
2022/03/11 02:48:18;;;;;;;17.95;6.45;;;;;;;-4.36;55.43;99468.63;4410536;32;20559;-76
2022/03/11 02:50:45;;;;;;;23.35;7.68;;;;;;;-4.68;56.66;99473.28;4409807;32;20085;-76
2022/03/11 02:53:12;;;;;;;16.77;6.45;;;;;;;-4.93;57.44;99473.06;4410327;32;20115;-76
2022/03/11 02:55:40;;;;;;;18.25;6.32;;;;;;;-4.53;56.70;99469.63;4396858;32;20155;-76
2022/03/11 02:58:07;;;;;;;15.32;5.28;;;;;;;-4.64;56.49;99461.66;4396595;32;20145;-76
2022/03/11 03:00:33;;;;;;;18.17;6.97;;;;;;;-4.80;57.11;99460.16;4410094;32;20126;-76
2022/03/11 03:03:02;;;;;;;17.00;6.20;;;;;;;-4.49;56.74;99474.84;4410419;32;20089;-76
2022/03/11 03:05:30;;;;;;;14.18;5.50;;;;;;;-3.98;54.48;99471.75;4409726;32;20105;-76
2022/03/11 03:07:57;;;;;;;17.58;5.75;;;;;;;-3.99;55.16;99468.37;4410281;32;20584;-76
2022/03/11 03:10:24;;;;;;;14.55;5.55;;;;;;;-4.02;55.21;99470.78;4409907;32;20158;-76
2022/03/11 03:12:51;;;;;;;14.65;5.40;;;;;;;-4.55;55.47;99466.19;4410372;32;20112;-76
2022/03/11 03:15:18;;;;;;;15.57;6.50;;;;;;;-5.22;57.75;99465.94;4410059;32;20090;-76
2022/03/11 03:17:44;;;;;;;14.80;5.65;;;;;;;-4.90;57.35;99470.66;4409995;32;20090;-76
2022/03/11 03:20:11;;;;;;;11.15;4.85;;;;;;;-4.75;57.06;99471.28;4410068;32;20162;-76
2022/03/11 03:22:38;;;;;;;10.88;4.68;;;;;;;-4.67;56.90;99482.53;4410298;32;20161;-76
2022/03/11 03:25:07;;;;;;;12.50;5.53;;;;;;;-4.81;57.16;99478.59;4409880;32;20142;-76
2022/03/11 03:27:35;;;;;;;16.20;5.60;;;;;;;-4.81;57.16;99475.22;4410315;32;20209;-76
2022/03/11 03:30:05;;;;;;;15.43;5.30;;;;;;;-4.82;56.93;99476.00;4410060;32;20121;-76
2022/03/11 03:32:32;;;;;;;17.08;5.55;;;;;;;-4.85;56.36;99471.72;4409791;32;20124;-76
2022/03/11 03:34:59;;;;;;;16.08;6.55;;;;;;;-5.12;57.89;99471.41;4410252;32;20108;-77
2022/03/11 03:37:26;;;;;;;14.68;6.12;;;;;;;-5.00;58.00;99476.09;4410204;32;20173;-76
2022/03/11 03:39:53;;;;;;;14.57;5.78;;;;;;;-4.81;56.66;99477.72;4409631;32;20153;-76
2022/03/11 03:42:20;;;;;;;13.52;4.93;;;;;;;-4.47;55.43;99469.84;4410122;32;20111;-76
2022/03/11 03:44:47;;;;;;;16.20;5.15;;;;;;;-4.36;54.40;99458.53;4409994;32;20098;-76
2022/03/11 03:47:14;;;;;;;17.17;5.70;;;;;;;-4.26;54.54;99458.09;4409769;32;20149;-76
2022/03/11 03:49:41;;;;;;;13.50;5.50;;;;;;;-4.69;56.28;99463.09;4409879;32;20407;-76
2022/03/11 03:52:11;;;;;;;15.45;5.40;;;;;;;-5.06;56.90;99464.12;4410014;32;20108;-76
2022/03/11 03:54:39;;;;;;;13.30;5.05;;;;;;;-5.38;57.48;99464.44;4409677;32;20086;-76
2022/03/11 03:57:07;;;;;;;20.00;5.65;;;;;;;-5.07;57.43;99466.59;4409942;32;20471;-76
2022/03/11 03:59:34;;;;;;;15.38;5.65;;;;;;;-5.26;58.28;99470.84;4408365;32;20607;-76
2022/03/11 04:02:02;;;;;;;15.77;5.35;;;;;;;-5.03;57.57;99479.34;4409871;32;20620;-76
2022/03/11 04:04:29;;;;;;;15.80;5.50;;;;;;;-4.95;56.80;99475.50;4410000;32;20433;-76
2022/03/11 04:06:56;;;;;;;15.35;4.85;;;;;;;-4.84;56.09;99475.94;4409554;32;20444;-76
2022/03/11 04:09:23;;;;;;;9.45;4.47;;;;;;;-4.84;55.82;99478.47;4409772;32;20129;-76
2022/03/11 04:11:50;;;;;;;15.05;5.35;;;;;;;-4.54;55.48;99481.38;4409710;32;20137;-76
2022/03/11 04:14:17;;;;;;;12.25;4.18;;;;;;;-4.83;55.73;99471.78;4409184;32;20137;-76
2022/03/11 04:16:44;;;;;;;12.37;4.20;;;;;;;-5.08;56.30;99464.88;4408736;32;20102;-76
2022/03/11 04:19:11;;;;;;;16.55;6.12;;;;;;;-5.38;57.60;99477.03;4409668;32;20428;-76
2022/03/11 04:21:38;;;;;;;12.00;4.75;;;;;;;-5.28;57.16;99491.72;4409308;32;20144;-77
2022/03/11 04:24:12;;;;;;;15.40;5.12;;;;;;;-5.19;56.38;99489.59;4409731;32;20133;-76
2022/03/11 04:26:41;;;;;;;17.80;5.40;;;;;;;-5.03;55.80;99491.94;4409761;32;20085;-76
2022/03/11 04:29:08;;;;;;;16.62;5.72;;;;;;;-4.96;55.12;99490.56;4409288;32;20085;-76
2022/03/11 04:31:35;;;;;;;14.27;5.50;;;;;;;-5.65;57.97;99487.59;4409542;32;20166;-76
2022/03/11 04:34:02;;;;;;;14.73;5.22;;;;;;;-5.18;56.40;99501.38;4409544;32;20600;-76
2022/03/11 04:36:31;;;;;;;14.82;4.95;;;;;;;-5.02;56.09;99503.72;4395709;32;20104;-76
2022/03/11 04:38:59;;;;;;;14.48;5.18;;;;;;;-4.67;54.80;99499.31;4409437;32;20094;-76
2022/03/11 04:41:26;;;;;;;17.90;5.80;;;;;;;-5.05;55.10;99496.06;4409229;32;20149;-76
2022/03/11 04:43:53;;;;;;;18.05;5.87;;;;;;;-5.81;58.11;99490.22;4409410;32;20102;-76
2022/03/11 04:46:20;;;;;;;16.05;5.95;;;;;;;-5.46;57.07;99494.28;4409372;32;20145;-76
2022/03/11 04:48:47;;;;;;;17.23;5.40;;;;;;;-5.19;56.04;99503.84;4408979;32;20163;-76
2022/03/11 04:51:14;;;;;;;15.02;6.45;;;;;;;-5.26;56.06;99506.06;4409366;32;20133;-76
2022/03/11 04:53:41;;;;;;;16.30;6.15;;;;;;;-5.03;55.00;99506.19;4408082;32;20102;-76
2022/03/11 04:56:08;;;;;;;14.35;5.55;;;;;;;-4.95;54.63;99500.69;4408990;32;20085;-76
2022/03/11 04:58:35;;;;;;;19.08;6.70;;;;;;;-5.40;56.29;99502.12;4409224;32;20165;-76
2022/03/11 05:01:02;;;;;;;17.10;6.15;;;;;;;-5.41;56.38;99505.44;4409153;32;20136;-76
2022/03/11 05:03:29;;;;;;;16.35;5.62;;;;;;;-4.86;54.70;99505.25;4408914;32;20105;-76
2022/03/11 05:05:56;;;;;;;15.45;6.25;;;;;;;-4.39;53.16;99502.12;4409151;32;20153;-76
2022/03/11 05:08:23;;;;;;;18.30;6.40;;;;;;;-4.23;52.33;99507.78;4409156;32;20161;-76
2022/03/11 05:10:50;;;;;;;15.00;5.40;;;;;;;-4.14;52.08;99493.00;4408529;32;20116;-76
2022/03/11 05:13:17;;;;;;;16.45;6.43;;;;;;;-4.48;52.61;99496.72;4409066;32;20094;-76
2022/03/11 05:15:44;;;;;;;16.60;6.55;;;;;;;-4.68;53.76;99497.56;4408580;32;20104;-76
2022/03/11 05:18:11;;;;;;;16.77;6.30;;;;;;;-4.80;54.39;99504.63;4408732;32;20094;-76
2022/03/11 05:20:38;;;;;;;20.02;6.43;;;;;;;-4.35;53.15;99508.16;4408813;32;20126;-76
2022/03/11 05:23:05;;;;;;;17.65;6.32;;;;;;;-4.02;52.26;99506.09;4409031;32;20165;-76
2022/03/11 05:25:32;;;;;;;17.02;6.00;;;;;;;-3.96;51.78;99508.81;4408603;32;20809;-76
2022/03/11 05:27:59;;;;;;;14.87;5.57;;;;;;;-4.04;52.08;99500.13;4409723;32;20099;-76
2022/03/11 05:30:26;;;;;;;15.60;6.32;;;;;;;-5.44;56.24;99505.28;4410686;32;20165;-76
2022/03/11 05:32:53;;;;;;;18.80;6.78;;;;;;;-5.76;58.76;99493.78;4410602;32;20082;-76
2022/03/11 05:35:20;;;;;;;23.87;6.25;;;;;;;-4.96;55.70;99504.00;4410803;32;20145;-77
2022/03/11 05:37:47;;;;;;;16.90;6.45;;;;;;;-5.26;56.80;99502.69;4410622;32;20098;-76
2022/03/11 05:40:14;;;;;;;18.42;6.60;;;;;;;-4.47;54.51;99507.66;4411641;32;20441;-75
2022/03/11 05:42:41;;;;;;;17.40;6.35;;;;;;;-4.16;52.92;99509.72;4411049;32;20138;-75
2022/03/11 05:45:09;;;;;;;17.20;6.07;;;;;;;-4.05;52.91;99512.66;4410570;32;20415;-75
2022/03/11 05:47:36;;;;;;;17.65;6.35;;;;;;;-3.88;54.09;99515.03;4410853;32;20085;-75
2022/03/11 05:50:03;;;;;;;15.80;6.68;;;;;;;-3.23;51.73;99510.66;4410732;32;20122;-75
2022/03/11 05:52:30;;;;;;;18.60;6.72;;;;;;;-2.59;49.41;99507.78;4410533;32;20158;-75
2022/03/11 05:54:57;;;;;;;17.00;6.35;;;;;;;-1.73;47.06;99515.50;4410851;32;20082;-75
2022/03/11 05:57:24;;;;;;;;;;;;;;;-1.46;45.58;99509.59;4411067;32;20081;-75
2022/03/11 05:59:51;;;;;;;16.60;7.07;;;;;;;0.04;42.67;99515.94;4410251;32;20025;-75
2022/03/11 06:02:18;;;;;;;16.90;5.78;;;;;;;1.39;39.17;99520.34;4410835;32;20105;-75
2022/03/11 06:04:45;;;;;;;15.10;6.57;;;;;;;2.57;36.40;99524.69;4410800;32;20569;-75
2022/03/11 06:07:12;;;;;;;;;;;;;;;3.43;34.37;99526.47;4410757;32;20581;-75
2022/03/11 06:09:39;;;;;;;21.90;7.30;;;;;;;4.69;32.56;99525.66;4410597;32;19988;-75
2022/03/11 06:12:07;;;;;;;15.98;6.47;;;;;;;5.87;31.27;99537.00;4410772;32;20094;-75
2022/03/11 06:14:34;;;;;;;15.10;6.15;;;;;;;6.37;29.68;99534.38;4410046;32;20086;-75
2022/03/11 06:17:01;;;;;;;15.25;6.30;;;;;;;7.07;29.17;99541.84;4410847;32;20097;-76
2022/03/11 06:19:28;;;;;;;14.77;6.47;;;;;;;6.66;29.45;99542.00;4410512;32;20110;-75
2022/03/11 06:21:57;;;;;;;17.12;6.03;;;;;;;7.10;29.38;99546.09;4410375;32;20165;-76
2022/03/11 06:24:24;;;;;;;15.80;5.93;;;;;;;6.74;29.57;99544.56;4410619;32;20096;-76
2022/03/11 06:26:51;;;;;;;;;;;;;;;4.55;32.36;99546.00;4410617;32;20400;-76
2022/03/11 06:29:18;;;;;;;11.57;4.32;;;;;;;2.34;34.38;99542.19;4410548;32;20295;-75
2022/03/11 06:31:45;;;;;;;;;;;;;;;1.85;36.51;99540.59;4410887;32;20470;-75
2022/03/11 06:34:12;;;;;;;11.82;4.32;;;;;;;1.60;36.42;99545.31;4410263;32;20324;-75
2022/03/11 06:36:38;;;;;;;;;;;;;;;0.96;37.97;99546.69;4410826;32;20414;-75
2022/03/11 06:39:07;;;;;;;10.93;4.35;;;;;;;0.98;38.07;99545.00;4409870;32;20289;-75
2022/03/11 06:41:34;;;;;;;10.93;3.60;;;;;;;1.49;37.26;99556.09;4410189;32;20116;-76
2022/03/11 06:44:01;;;;;;;;;;;;;;;1.27;36.94;99552.31;4410844;32;20160;-76
2022/03/11 06:46:29;;;;;;;10.52;4.07;;;;;;;0.50;37.68;99542.31;4410543;32;19973;-75
2022/03/11 06:48:56;;;;;;;12.63;3.90;;;;;;;0.41;38.97;99549.75;4409891;32;20760;-76
2022/03/11 06:51:23;;;;;;;;;;;;;;;0.26;39.41;99561.28;4410707;32;20110;-75
2022/03/11 06:53:50;;;;;;;11.50;4.22;;;;;;;0.46;39.07;99561.72;4410363;32;19978;-75
2022/03/11 06:56:17;;;;;;;12.88;5.03;;;;;;;1.15;38.37;99565.66;4410098;32;20463;-75
2022/03/11 06:58:44;;;;;;;10.50;3.62;;;;;;;0.32;38.40;99564.78;4410355;32;20129;-76
2022/03/11 07:01:11;;;;;;;10.90;4.10;;;;;;;-0.02;38.85;99572.47;4410996;32;20102;-75
2022/03/11 07:03:38;;;;;;;11.55;3.85;;;;;;;-0.32;39.45;99565.00;4410377;32;20479;-75
2022/03/11 07:06:05;;;;;;;;;;;;;;;0.16;38.85;99553.44;4410612;32;20122;-75
2022/03/11 07:08:32;;;;;;;13.57;4.00;;;;;;;0.34;38.55;99571.63;4410290;32;20029;-75
2022/03/11 07:10:59;;;;;;;10.85;4.15;;;;;;;0.14;38.70;99570.31;4409362;32;20174;-75
2022/03/11 07:13:26;;;;;;;;;;;;;;;0.20;38.25;99573.81;4410377;32;20098;-76
2022/03/11 07:15:56;;;;;;;7.68;2.95;;;;;;;0.68;38.29;99578.28;4409618;32;20092;-76
2022/03/11 07:18:23;;;;;;;11.15;3.70;;;;;;;0.56;36.98;99576.34;4409018;32;20476;-76
2022/03/11 07:20:50;;;;;;;7.18;2.87;;;;;;;0.48;36.94;99572.78;4409951;32;20742;-76
2022/03/11 07:23:27;;;;;;;13.52;5.68;;;;;;;0.15;36.99;99575.41;4409770;32;20146;-76
2022/03/11 07:25:54;;;;;;;10.32;3.37;;;;;;;0.11;36.59;99576.19;4410160;32;20078;-76
2022/03/11 07:28:21;;;;;;;;;;;;;;;0.10;37.31;99569.34;4410351;32;20161;-76
2022/03/11 07:30:48;;;;;;;13.23;4.93;;;;;;;-0.02;37.57;99580.09;4409519;32;20025;-76
2022/03/11 07:33:15;;;;;;;11.38;4.28;;;;;;;-0.13;38.69;99568.81;4396257;32;20099;-77
2022/03/11 07:35:42;;;;;;;;;;;;;;;-0.54;38.45;99572.84;4410392;32;20077;-76
2022/03/11 07:38:08;;;;;;;10.88;4.10;;;;;;;-0.25;38.48;99583.75;4409555;32;19992;-75
2022/03/11 07:40:35;;;;;;;12.90;3.90;;;;;;;0.25;38.20;99571.41;4409812;32;20110;-75
2022/03/11 07:43:03;;;;;;;11.25;4.30;;;;;;;0.23;38.16;99568.84;4410116;32;20085;-74
2022/03/11 07:45:30;;;;;;;14.13;4.30;;;;;;;0.14;38.46;99571.16;4409702;32;20153;-75
2022/03/11 07:47:57;;;;;;;11.57;4.18;;;;;;;0.53;35.59;99568.66;4410053;32;20481;-76
2022/03/11 07:50:24;;;;;;;9.90;4.25;;;;;;;0.10;37.24;99582.03;4409676;32;20086;-76
2022/03/11 07:52:51;;;;;;;10.98;4.00;;;;;;;0.58;35.94;99573.81;4409385;32;20105;-75
2022/03/11 07:55:18;;;;;;;;;;;;;;;-0.05;37.42;99579.16;4410134;32;20376;-76
2022/03/11 07:57:45;;;;;;;12.88;3.70;;;;;;;0.13;37.11;99569.44;4408908;32;19990;-77
2022/03/11 08:00:13;;;;;;;;;;;;;;;0.03;37.84;99586.97;4409723;32;20132;-77
2022/03/11 08:02:40;;;;;;;10.95;3.67;;;;;;;0.30;37.36;99577.44;4410935;32;20068;-76
2022/03/11 08:05:14;;;;;;;10.00;3.67;;;;;;;0.21;37.81;99578.09;4408268;32;20083;-78
2022/03/11 08:07:48;;;;;;;9.88;3.90;;;;;;;0.49;38.01;99582.09;4410180;32;20113;-77
2022/03/11 08:10:18;;;;;;;12.00;4.78;;;;;;;0.67;36.69;99581.66;4409592;32;20102;-77
2022/03/11 08:12:46;;;;;;;19.67;4.15;;;;;;;0.54;37.65;99579.69;4410082;32;20105;-77
2022/03/11 08:15:13;;;;;;;20.27;4.18;;;;;;;0.61;37.34;99573.03;4404639;32;150289;-75
2022/03/11 08:17:41;;;;;;;11.40;3.47;;;;;;;0.83;37.27;99570.09;4409849;32;20148;-75
2022/03/11 08:20:09;;;;;;;11.57;4.72;;;;;;;0.82;36.42;99581.94;4409104;32;20161;-74
2022/03/11 08:22:37;;;;;;;13.00;4.12;;;;;;;0.41;36.36;99576.00;4409487;32;20645;-74
2022/03/11 08:25:05;;;;;;;12.90;4.22;;;;;;;0.83;36.51;99582.81;4409687;32;20125;-75
2022/03/11 08:27:32;;;;;;;12.27;4.28;;;;;;;1.27;35.99;99581.13;4409092;32;20094;-74
2022/03/11 08:29:59;;;;;;;9.43;3.28;;;;;;;1.27;35.83;99585.38;4409316;32;20108;-75
2022/03/11 08:32:28;;;;;;;9.82;4.10;;;;;;;0.83;35.89;99573.50;4409491;32;20085;-74
2022/03/11 08:34:55;;;;;;;10.23;4.40;;;;;;;0.85;35.78;99583.69;4409042;32;20086;-75
2022/03/11 08:37:27;;;;;;;12.40;4.37;;;;;;;0.76;35.36;99568.28;4409618;32;20112;-75
2022/03/11 08:40:01;;;;;;;9.63;4.55;;;;;;;0.63;35.99;99572.22;4409002;32;20145;-74
2022/03/11 08:42:28;;;;;;;9.50;3.33;;;;;;;1.05;36.71;99572.25;4409452;32;20109;-75
2022/03/11 08:44:55;;;;;;;;;;;;;;;1.31;35.18;99566.81;4409791;32;20125;-75
2022/03/11 08:47:22;;;;;;;10.75;3.92;;;;;;;1.45;34.82;99571.31;4409022;32;20020;-74
2022/03/11 08:49:49;;;;;;;16.20;5.05;;;;;;;1.60;33.27;99570.75;4409176;32;20133;-75
2022/03/11 08:52:16;;;;;;;10.57;3.87;;;;;;;1.24;35.60;99568.38;4409055;32;20162;-75
2022/03/11 08:54:43;;;;;;;;;;;;;;;2.27;34.74;99570.97;4409060;32;20107;-74
2022/03/11 08:57:10;;;;;;;10.65;4.25;;;;;;;2.23;33.30;99566.63;4409331;32;20309;-74
2022/03/11 08:59:37;;;;;;;;;;;;;;;2.67;32.08;99571.53;4409452;32;20169;-75
2022/03/11 09:02:07;;;;;;;13.85;4.47;;;;;;;1.76;33.43;99569.31;4408911;32;20060;-74
2022/03/11 09:04:35;;;;;;;9.05;3.42;;;;;;;1.15;33.86;99568.19;4410040;32;20074;-74
2022/03/11 09:07:03;;;;;;;9.48;3.83;;;;;;;1.70;33.49;99574.28;4409896;32;20124;-75
2022/03/11 09:09:32;;;;;;;10.38;3.85;;;;;;;1.88;33.74;99572.03;4410608;32;20108;-74
2022/03/11 09:12:00;;;;;;;9.63;3.80;;;;;;;2.14;33.36;99575.00;4409912;32;20129;-75
2022/03/11 09:14:27;;;;;;;11.40;3.55;;;;;;;1.90;33.33;99572.06;4410884;32;20136;-74
2022/03/11 09:16:53;;;;;;;;;;;;;;;2.70;31.91;99566.44;4410617;32;20129;-74
2022/03/11 09:19:21;;;;;;;10.40;4.00;;;;;;;2.43;32.90;99565.22;4410914;32;20319;-74
2022/03/11 09:21:48;;;;;;;14.07;5.62;;;;;;;2.62;32.30;99564.66;4410923;32;20121;-74
2022/03/11 09:24:15;;;;;;;9.55;3.40;;;;;;;2.82;31.92;99553.84;4410501;32;20109;-75
2022/03/11 09:26:45;;;;;;;10.82;4.37;;;;;;;3.08;31.10;99555.00;4409837;32;20157;-75
2022/03/11 09:29:20;;;;;;;8.10;3.25;;;;;;;2.69;31.34;99557.94;4409476;32;20143;-75
2022/03/11 09:31:47;;;;;;;11.12;3.90;;;;;;;2.14;32.05;99541.91;4410826;32;20110;-74
2022/03/11 09:34:13;;;;;;;;;;;;;;;2.18;32.46;99553.84;4411097;32;20107;-75
2022/03/11 09:36:46;;;;;;;10.05;3.75;;;;;;;2.18;32.70;99553.00;4410763;32;20005;-74
2022/03/11 09:39:13;;;;;;;12.07;4.43;;;;;;;2.64;31.58;99561.25;4410686;32;20113;-74
2022/03/11 09:41:40;;;;;;;;;;;;;;;2.48;31.78;99553.44;4410946;32;20177;-74
2022/03/11 09:44:08;;;;;;;10.85;4.32;;;;;;;2.05;32.90;99538.38;4409182;32;19970;-74
2022/03/11 09:46:35;;;;;;;12.52;4.25;;;;;;;2.65;32.98;99553.63;4409588;32;20161;-74
2022/03/11 09:49:03;;;;;;;10.68;3.70;;;;;;;3.08;32.53;99546.50;4410757;32;20140;-74
2022/03/11 09:51:34;;;;;;;10.20;3.33;;;;;;;2.04;32.30;99534.97;4410356;32;20086;-74
2022/03/11 09:54:02;;;;;;;8.93;3.70;;;;;;;3.19;31.46;99542.41;4409478;32;20145;-75
2022/03/11 09:56:29;;;;;;;17.05;6.95;;;;;;;2.25;32.22;99542.06;4409561;32;20157;-75
2022/03/11 09:58:57;;;;;;;10.43;4.03;;;;;;;1.94;32.41;99539.06;4409137;32;20144;-74
2022/03/11 10:01:23;;;;;;;10.30;3.67;;;;;;;2.50;31.62;99541.56;4410510;32;20145;-74
2022/03/11 10:03:51;;;;;;;10.07;3.45;;;;;;;1.99;32.20;99536.56;4410731;32;20152;-75
2022/03/11 10:06:37;;;;;;;9.02;4.05;;;;;;;2.71;30.79;99548.63;4410271;32;20082;-74
2022/03/11 10:09:04;;;;;;;12.57;4.80;;;;;;;2.98;31.00;99544.69;4409596;32;20173;-74
2022/03/11 10:11:31;;;;;;;11.27;4.07;;;;;;;3.62;29.94;99532.62;4410275;32;20090;-74
2022/03/11 10:14:07;;;;;;;9.40;2.87;;;;;;;3.68;29.21;99532.66;4409705;32;20233;-75
2022/03/11 10:16:35;;;;;;;11.25;4.10;;;;;;;3.39;30.02;99545.13;4410511;32;20173;-75
2022/03/11 10:19:05;;;;;;;11.73;4.32;;;;;;;2.61;30.44;99536.59;4410195;32;20120;-75
2022/03/11 10:21:39;;;;;;;11.32;3.90;;;;;;;2.99;30.40;99533.69;4409393;32;20165;-74
2022/03/11 10:24:13;;;;;;;11.07;4.25;;;;;;;2.83;30.53;99527.53;4410595;32;20121;-75
2022/03/11 10:26:46;;;;;;;9.65;3.45;;;;;;;2.57;31.00;99534.88;4410273;32;20377;-75
2022/03/11 10:29:19;;;;;;;9.93;4.07;;;;;;;3.45;29.53;99535.00;4409309;32;20118;-75
2022/03/11 10:31:48;;;;;;;14.18;5.00;;;;;;;3.23;29.51;99535.63;4410295;32;20102;-75
2022/03/11 10:34:16;;;;;;;11.60;4.07;;;;;;;4.54;28.16;99521.31;4408907;32;20096;-75
2022/03/11 10:36:50;;;;;;;11.38;4.25;;;;;;;4.78;27.92;99523.97;4410519;32;20112;-75
2022/03/11 10:39:27;;;;;;;12.07;3.70;;;;;;;3.85;29.45;99515.78;4410233;32;20150;-75
2022/03/11 10:42:21;;;;;;;15.38;4.87;;;;;;;3.34;28.84;99518.72;4410406;32;20112;-74
2022/03/11 10:45:06;;;;;;;13.73;5.03;;;;;;;3.57;29.06;99524.91;4410488;32;20127;-75
2022/03/11 10:47:38;;;;;;;11.68;3.70;;;;;;;4.53;27.84;99514.50;4410132;32;20156;-75
2022/03/11 10:50:15;;;;;;;10.57;3.50;;;;;;;3.86;28.46;99507.28;4410222;32;20493;-75
2022/03/11 10:52:49;;;;;;;12.37;4.70;;;;;;;4.37;27.43;99518.69;4409330;32;20783;-75
2022/03/11 10:55:26;;;;;;;9.88;3.78;;;;;;;4.66;27.85;99506.00;4409996;32;20150;-74
2022/03/11 10:57:56;;;;;;;11.12;4.12;;;;;;;5.03;27.81;99504.47;4410185;32;20169;-75
2022/03/11 11:00:30;;;;;;;12.60;4.90;;;;;;;4.82;27.82;99502.69;4409742;32;20154;-75
2022/03/11 11:02:59;;;;;;;13.77;5.12;;;;;;;5.26;27.15;99498.53;4410403;32;20144;-75
2022/03/11 11:05:28;;;;;;;12.20;4.28;;;;;;;4.11;29.06;99499.78;4410226;32;20100;-75
2022/03/11 11:07:57;;;;;;;11.30;4.32;;;;;;;3.94;28.85;99500.53;4409959;32;20446;-75
2022/03/11 11:10:25;;;;;;;15.02;5.22;;;;;;;3.18;29.70;99494.75;4408874;32;20105;-75
2022/03/11 11:12:53;;;;;;;13.50;4.20;;;;;;;3.90;28.93;99492.81;4410354;32;20097;-75
2022/03/11 11:15:21;;;;;;;10.10;3.42;;;;;;;4.75;28.61;99487.31;4408328;32;20099;-75
2022/03/11 11:17:49;;;;;;;11.32;4.70;;;;;;;4.52;27.72;99489.78;4410302;32;20361;-75
2022/03/11 11:20:32;;;;;;;12.70;4.90;;;;;;;3.82;28.86;99481.69;4409878;32;20098;-75
2022/03/11 11:23:05;;;;;;;12.60;5.20;;;;;;;4.19;27.83;99472.56;4409817;32;20122;-75
2022/03/11 11:25:33;;;;;;;11.65;4.43;;;;;;;5.86;26.21;99479.78;4408726;32;20142;-76
2022/03/11 11:28:04;;;;;;;13.05;4.65;;;;;;;5.08;26.93;99482.28;4408972;32;20093;-76
2022/03/11 11:30:31;;;;;;;16.02;4.95;;;;;;;4.24;27.17;99468.34;4395919;32;20179;-76
2022/03/11 11:32:59;;;;;;;13.27;4.20;;;;;;;4.21;27.90;99473.44;4409072;32;20164;-75
2022/03/11 11:35:29;;;;;;;11.32;3.80;;;;;;;4.49;27.93;99465.06;4408583;32;20141;-75
2022/03/11 11:37:58;;;;;;;11.23;4.12;;;;;;;4.22;27.65;99464.91;4410094;32;20101;-76